Time;durP1;ratioP1;P1;durP2;ratioP2;P2;SDS_P1;SDS_P2;PMS_P1;PMS_P2;Temp;Humidity;BMP_temperature;BMP_pressure;BME280_temperature;BME280_humidity;BME280_pressure;Samples;Min_cycle;Max_cycle;Signal;HPM_P1;HPM_P2
2023/08/18 00:00:00;;;;;;;22.55;15.35;;;17.40;99.90;;;;;;4987686;28;20185;-87
2023/08/18 00:02:27;;;;;;;21.95;15.68;;;17.40;99.90;;;;;;4973462;28;20180;-86
2023/08/18 00:04:53;;;;;;;19.02;14.60;;;17.40;99.90;;;;;;4977645;28;20191;-86
2023/08/18 00:07:18;;;;;;;21.23;16.08;;;17.40;99.90;;;;;;4977947;28;20173;-87
2023/08/18 00:09:44;;;;;;;38.70;17.13;;;17.40;99.90;;;;;;4994063;28;20641;-87
2023/08/18 00:12:10;;;;;;;24.50;16.45;;;17.30;99.90;;;;;;4993131;28;20216;-87
2023/08/18 00:14:36;;;;;;;22.15;16.60;;;17.30;99.90;;;;;;4977669;28;20274;-88
2023/08/18 00:17:02;;;;;;;27.35;17.42;;;17.30;99.90;;;;;;4977823;28;20533;-86
2023/08/18 00:21:57;;;;;;;18.85;14.93;;;17.30;99.90;;;;;;4992104;28;20231;-86
2023/08/18 00:24:24;;;;;;;23.98;17.00;;;17.40;99.90;;;;;;4997198;28;20183;-87
2023/08/18 00:26:49;;;;;;;25.25;17.10;;;17.30;99.90;;;;;;4997044;28;20529;-86
2023/08/18 00:29:15;;;;;;;26.15;16.25;;;17.30;99.90;;;;;;4996431;28;20188;-86
2023/08/18 00:31:42;;;;;;;30.77;16.55;;;17.30;99.90;;;;;;4996448;28;20216;-87
2023/08/18 00:34:08;;;;;;;23.42;15.77;;;17.30;99.90;;;;;;4996046;28;20195;-86
2023/08/18 00:36:34;;;;;;;19.30;15.13;;;17.30;99.90;;;;;;4997679;28;20187;-85
2023/08/18 00:39:01;;;;;;;15.70;13.75;;;17.30;99.90;;;;;;4996466;28;20187;-86
2023/08/18 00:41:29;;;;;;;19.50;14.70;;;17.30;99.90;;;;;;4991298;28;20183;-85
2023/08/18 00:43:54;;;;;;;18.55;14.27;;;17.30;99.90;;;;;;4995054;28;20196;-86
2023/08/18 00:46:21;;;;;;;32.15;16.50;;;17.30;99.90;;;;;;4994688;28;20210;-85
2023/08/18 00:48:48;;;;;;;18.45;14.10;;;17.20;99.90;;;;;;4996346;28;20260;-87
2023/08/18 00:51:14;;;;;;;20.58;14.32;;;17.30;99.90;;;;;;4995509;28;20207;-86
2023/08/18 00:53:42;;;;;;;16.20;13.05;;;17.30;99.90;;;;;;4995378;28;20206;-86
2023/08/18 00:56:09;;;;;;;61.25;14.60;;;17.20;99.90;;;;;;4993704;28;20195;-86
2023/08/18 00:58:38;;;;;;;20.83;13.90;;;17.20;99.90;;;;;;4984594;28;20598;-86
2023/08/18 01:01:04;;;;;;;24.67;13.77;;;17.30;99.90;;;;;;4979900;28;20696;-85
2023/08/18 01:03:30;;;;;;;35.85;15.00;;;17.20;99.90;;;;;;4995038;28;20196;-86
2023/08/18 01:05:56;;;;;;;33.45;15.23;;;17.20;99.90;;;;;;4994417;28;20215;-86
2023/08/18 01:08:22;;;;;;;46.63;14.95;;;17.20;99.90;;;;;;4997176;28;20172;-86
2023/08/18 01:11:08;;;;;;;22.00;13.18;;;17.20;99.90;;;;;;4994598;28;20212;-84
2023/08/18 01:13:46;;;;;;;34.15;14.77;;;17.20;99.90;;;;;;4995095;28;20191;-86
2023/08/18 01:16:18;;;;;;;27.00;14.82;;;17.20;99.90;;;;;;4995049;28;20188;-85
2023/08/18 01:18:45;;;;;;;35.85;14.63;;;17.20;99.90;;;;;;4994806;28;20642;-86
2023/08/18 01:21:14;;;;;;;14.82;13.30;;;17.30;99.90;;;;;;4993917;28;20570;-85
2023/08/18 01:23:40;;;;;;;25.13;13.30;;;17.20;99.90;;;;;;4994759;28;20192;-85
2023/08/18 01:26:06;;;;;;;15.15;13.02;;;17.30;99.90;;;;;;4995882;28;20184;-85
2023/08/18 01:28:33;;;;;;;13.35;12.00;;;17.20;99.90;;;;;;4994589;28;20314;-85
2023/08/18 01:31:01;;;;;;;20.35;12.43;;;17.20;99.90;;;;;;4994577;28;20227;-85
2023/08/18 01:33:36;;;;;;;15.45;12.77;;;17.10;99.90;;;;;;4995637;28;20180;-85
2023/08/18 01:36:12;;;;;;;17.15;11.38;;;17.20;99.90;;;;;;4994781;28;20554;-85
2023/08/18 01:38:39;;;;;;;11.40;10.15;;;17.20;99.90;;;;;;4995423;28;20183;-85
2023/08/18 01:41:06;;;;;;;16.83;11.00;;;17.20;99.90;;;;;;4995627;28;20214;-84
2023/08/18 01:43:33;;;;;;;12.70;11.32;;;17.20;99.90;;;;;;4993361;28;20520;-85
2023/08/18 01:46:03;;;;;;;20.00;11.27;;;17.20;99.90;;;;;;4984798;28;20188;-85
2023/08/18 01:48:28;;;;;;;14.90;10.88;;;17.10;99.90;;;;;;4982939;28;20197;-85
2023/08/18 01:50:54;;;;;;;13.07;11.43;;;17.10;99.90;;;;;;4989232;28;20219;-85
2023/08/18 01:53:21;;;;;;;16.33;11.13;;;17.10;99.90;;;;;;4993466;28;20650;-85
2023/08/18 01:55:47;;;;;;;12.60;11.05;;;17.10;99.90;;;;;;4994269;28;20187;-85
2023/08/18 01:58:13;;;;;;;18.67;11.30;;;17.10;99.90;;;;;;4994241;28;20255;-85
2023/08/18 02:00:39;;;;;;;17.05;12.35;;;17.10;99.90;;;;;;4995152;28;20207;-85
2023/08/18 02:03:05;;;;;;;13.65;10.38;;;17.10;99.90;;;;;;4988076;28;20181;-86
2023/08/18 02:05:30;;;;;;;12.13;10.85;;;17.10;99.90;;;;;;4988783;28;20278;-86
2023/08/18 02:07:57;;;;;;;16.33;11.63;;;17.00;99.90;;;;;;4994849;28;20218;-86
2023/08/18 02:10:23;;;;;;;13.40;11.05;;;17.10;99.90;;;;;;4994693;28;20191;-85
2023/08/18 02:12:49;;;;;;;14.65;11.55;;;17.00;99.90;;;;;;4994926;28;20172;-85
2023/08/18 02:15:14;;;;;;;10.68;9.68;;;17.00;99.90;;;;;;4994435;28;20222;-84
2023/08/18 02:17:40;;;;;;;11.93;10.07;;;17.00;99.90;;;;;;4984977;28;20187;-85
2023/08/18 02:20:08;;;;;;;12.57;9.90;;;17.00;99.90;;;;;;4995547;28;20231;-85
2023/08/18 02:22:34;;;;;;;12.60;10.93;;;17.10;99.90;;;;;;4994480;28;20188;-86
2023/08/18 02:25:00;;;;;;;12.35;10.20;;;17.00;99.90;;;;;;4995271;28;20223;-85
2023/08/18 02:27:26;;;;;;;13.65;10.73;;;17.10;99.90;;;;;;4979525;28;20638;-85
2023/08/18 02:29:52;;;;;;;13.13;9.65;;;17.10;99.90;;;;;;4974922;28;20183;-85
2023/08/18 02:32:18;;;;;;;12.00;10.25;;;17.10;99.90;;;;;;4982898;28;20250;-86
2023/08/18 02:34:45;;;;;;;13.45;10.07;;;17.10;99.90;;;;;;4993651;28;20211;-86
2023/08/18 02:37:15;;;;;;;10.90;9.80;;;17.20;99.90;;;;;;4992790;28;20626;-85
2023/08/18 02:39:41;;;;;;;11.35;9.60;;;17.10;99.90;;;;;;4993860;28;20188;-85
2023/08/18 02:42:08;;;;;;;11.80;9.25;;;17.10;99.90;;;;;;4993491;28;20649;-86
2023/08/18 02:44:34;;;;;;;8.80;7.72;;;17.20;99.90;;;;;;4992991;28;20215;-87
2023/08/18 02:46:59;;;;;;;10.27;8.75;;;17.20;99.90;;;;;;4992497;28;20630;-86
2023/08/18 02:49:25;;;;;;;8.20;7.45;;;17.20;99.90;;;;;;4993420;28;20207;-85
2023/08/18 02:51:51;;;;;;;8.05;7.25;;;17.20;99.90;;;;;;4994835;28;20234;-86
2023/08/18 02:54:16;;;;;;;9.82;7.18;;;17.20;99.90;;;;;;4993903;28;20192;-87
2023/08/18 02:56:42;;;;;;;8.27;6.72;;;17.20;99.90;;;;;;4992775;28;20184;-85
2023/08/18 02:59:08;;;;;;;7.07;6.38;;;17.20;99.90;;;;;;4993838;28;20187;-86
2023/08/18 03:01:33;;;;;;;8.48;6.30;;;17.20;99.90;;;;;;4982848;28;20216;-86
2023/08/18 03:04:00;;;;;;;9.98;6.75;;;17.20;99.90;;;;;;4985706;28;20188;-88
2023/08/18 03:06:26;;;;;;;9.30;6.13;;;17.20;99.90;;;;;;4990889;28;20184;-85
2023/08/18 03:08:52;;;;;;;9.48;5.75;;;17.20;99.90;;;;;;4990131;28;20184;-86
2023/08/18 03:11:17;;;;;;;8.65;5.68;;;17.20;99.90;;;;;;4994252;28;20215;-86
2023/08/18 03:13:43;;;;;;;11.00;6.05;;;17.20;99.90;;;;;;4994014;28;20242;-86
2023/08/18 03:16:09;;;;;;;8.35;5.53;;;17.20;99.90;;;;;;4993320;28;20270;-85
2023/08/18 03:18:35;;;;;;;9.02;5.53;;;17.20;99.90;;;;;;4986635;28;20183;-85
2023/08/18 03:21:03;;;;;;;10.10;5.38;;;17.10;99.90;;;;;;4993931;28;20235;-86
2023/08/18 03:23:29;;;;;;;8.30;5.65;;;17.10;99.90;;;;;;4993143;28;20184;-85
2023/08/18 03:26:03;;;;;;;7.40;4.90;;;17.10;99.90;;;;;;4993246;28;20195;-86
2023/08/18 03:28:33;;;;;;;6.55;5.07;;;17.10;99.90;;;;;;4992350;28;20189;-85
2023/08/18 03:31:03;;;;;;;8.73;5.50;;;17.10;99.90;;;;;;4986856;28;20231;-85
2023/08/18 03:33:30;;;;;;;9.30;5.30;;;17.10;99.90;;;;;;4993295;28;20187;-84
2023/08/18 03:35:55;;;;;;;5.53;4.30;;;17.10;99.90;;;;;;4982805;28;20235;-84
2023/08/18 03:38:22;;;;;;;5.75;5.03;;;17.10;99.90;;;;;;4986979;28;20189;-85
2023/08/18 03:40:49;;;;;;;8.68;4.80;;;17.10;99.90;;;;;;4984937;28;20198;-85
2023/08/18 03:43:16;;;;;;;7.00;4.68;;;17.20;99.90;;;;;;4990812;28;20521;-84
2023/08/18 03:45:42;;;;;;;7.30;4.25;;;17.10;99.90;;;;;;4983974;28;20636;-85
2023/08/18 03:48:10;;;;;;;5.70;4.78;;;17.10;99.90;;;;;;4991997;28;20183;-86
2023/08/18 03:50:38;;;;;;;11.73;4.82;;;17.10;99.90;;;;;;4993226;28;20657;-85
2023/08/18 03:53:05;;;;;;;6.95;5.15;;;17.00;99.90;;;;;;4994307;28;20176;-85
2023/08/18 03:55:31;;;;;;;5.78;4.22;;;17.00;99.90;;;;;;4992358;28;20285;-84
2023/08/18 03:57:56;;;;;;;6.18;4.25;;;17.10;99.90;;;;;;4991822;28;20634;-85
2023/08/18 04:00:22;;;;;;;12.70;4.20;;;17.10;99.90;;;;;;4991345;28;20271;-85
2023/08/18 04:02:48;;;;;;;5.85;3.95;;;17.20;99.90;;;;;;4994242;28;20184;-85
2023/08/18 04:05:14;;;;;;;7.55;4.22;;;17.20;99.90;;;;;;4994046;28;20187;-85
2023/08/18 04:07:40;;;;;;;6.45;3.33;;;17.20;99.90;;;;;;4991983;28;20199;-84
2023/08/18 04:10:07;;;;;;;10.68;4.40;;;17.20;99.90;;;;;;4992836;28;20179;-85
2023/08/18 04:12:33;;;;;;;7.00;3.80;;;17.10;99.90;;;;;;4993910;28;20204;-85
2023/08/18 04:14:59;;;;;;;7.72;3.65;;;17.10;99.90;;;;;;4994286;28;20262;-85
2023/08/18 04:17:24;;;;;;;5.38;3.22;;;17.10;99.90;;;;;;4992022;28;20187;-85
2023/08/18 04:19:50;;;;;;;4.93;2.88;;;17.10;99.90;;;;;;4993712;28;20251;-85
2023/08/18 04:22:16;;;;;;;9.65;3.50;;;17.10;99.90;;;;;;4994379;28;20171;-85
2023/08/18 04:24:42;;;;;;;9.05;2.78;;;17.10;99.90;;;;;;4993290;28;20294;-85
2023/08/18 04:27:07;;;;;;;6.53;2.88;;;17.20;99.90;;;;;;4992225;28;20183;-85
2023/08/18 04:29:36;;;;;;;7.25;2.53;;;17.20;99.90;;;;;;4994342;28;20263;-84
2023/08/18 04:32:02;;;;;;;8.05;2.60;;;17.10;99.90;;;;;;4994129;28;20212;-85
2023/08/18 04:34:29;;;;;;;9.35;3.10;;;17.10;99.90;;;;;;4988171;28;20179;-85
2023/08/18 04:36:55;;;;;;;6.28;2.88;;;17.10;99.90;;;;;;4994139;28;20884;-85
2023/08/18 04:39:21;;;;;;;5.93;2.97;;;17.10;99.90;;;;;;4993411;28;20263;-85
2023/08/18 04:41:47;;;;;;;9.38;2.80;;;17.20;99.90;;;;;;4982442;28;20232;-84
2023/08/18 04:44:12;;;;;;;6.85;3.10;;;17.10;99.90;;;;;;4991722;28;20254;-85
2023/08/18 04:46:38;;;;;;;10.07;3.03;;;17.10;99.90;;;;;;4987959;28;20386;-85
2023/08/18 04:49:04;;;;;;;5.20;2.88;;;17.10;99.90;;;;;;4986412;28;20236;-84
2023/08/18 04:51:30;;;;;;;4.50;2.75;;;17.10;99.90;;;;;;4991474;28;20220;-85
2023/08/18 04:53:56;;;;;;;5.63;2.88;;;17.10;99.90;;;;;;4997261;28;20187;-85
2023/08/18 04:56:22;;;;;;;6.22;2.90;;;17.10;99.90;;;;;;4989534;28;20175;-84
2023/08/18 04:58:47;;;;;;;4.88;3.00;;;17.20;99.90;;;;;;4993537;28;20226;-84
2023/08/18 05:01:13;;;;;;;4.32;2.92;;;17.20;99.90;;;;;;4993473;28;20199;-85
2023/08/18 05:03:39;;;;;;;6.30;2.90;;;17.20;99.90;;;;;;4995042;28;20222;-84
2023/08/18 05:06:10;;;;;;;5.78;2.67;;;17.20;99.90;;;;;;4994541;28;20637;-85
2023/08/18 05:08:39;;;;;;;3.63;2.70;;;17.20;99.90;;;;;;4992786;28;20180;-85
2023/08/18 05:11:08;;;;;;;3.90;2.50;;;17.20;99.90;;;;;;4995533;28;20580;-85
2023/08/18 05:13:36;;;;;;;3.47;2.63;;;17.20;99.90;;;;;;4996526;28;20219;-85
2023/08/18 05:16:03;;;;;;;5.07;2.80;;;17.20;99.90;;;;;;4994160;28;20275;-85
2023/08/18 05:18:29;;;;;;;4.32;2.60;;;17.20;99.90;;;;;;4991483;28;20188;-85
2023/08/18 05:20:56;;;;;;;7.13;3.03;;;17.20;99.90;;;;;;4995259;28;20247;-85
2023/08/18 05:23:22;;;;;;;4.93;2.70;;;17.20;99.90;;;;;;4996283;28;20183;-85
2023/08/18 05:25:48;;;;;;;4.15;2.70;;;17.20;99.90;;;;;;4994797;28;20191;-85
2023/08/18 05:28:17;;;;;;;5.15;2.72;;;17.20;99.90;;;;;;4994112;28;20184;-84
2023/08/18 05:30:46;;;;;;;4.70;2.67;;;17.30;99.90;;;;;;4993655;28;20184;-85
2023/08/18 05:33:12;;;;;;;4.32;2.60;;;17.30;99.90;;;;;;4992902;28;20192;-85
2023/08/18 05:35:38;;;;;;;6.40;3.08;;;17.30;99.90;;;;;;4995730;28;20502;-85
2023/08/18 05:38:10;;;;;;;5.07;2.75;;;17.40;99.90;;;;;;4989906;28;20218;-85
2023/08/18 05:40:56;;;;;;;5.20;2.53;;;17.40;99.90;;;;;;4994426;28;20238;-84
2023/08/18 05:43:22;;;;;;;6.63;2.53;;;17.50;99.90;;;;;;4990683;28;20195;-85
2023/08/18 05:45:48;;;;;;;4.70;2.28;;;17.50;99.90;;;;;;4991031;28;20615;-84
2023/08/18 05:48:14;;;;;;;9.07;2.70;;;17.50;99.90;;;;;;4994547;28;20191;-84
2023/08/18 05:50:40;;;;;;;6.22;2.60;;;17.50;99.90;;;;;;4992171;28;20188;-84
2023/08/18 05:53:06;;;;;;;4.22;2.67;;;17.60;99.90;;;;;;4992273;28;20184;-85
2023/08/18 05:55:32;;;;;;;7.47;2.70;;;17.60;99.90;;;;;;4994760;28;20184;-87
2023/08/18 05:58:00;;;;;;;5.10;2.63;;;17.70;99.90;;;;;;4986531;28;20267;-85
2023/08/18 06:00:27;;;;;;;5.07;2.80;;;17.70;99.90;;;;;;4987034;28;20180;-86
2023/08/18 06:02:53;;;;;;;6.40;2.70;;;17.80;99.90;;;;;;4994096;28;20184;-85
2023/08/18 06:05:19;;;;;;;5.88;2.72;;;17.80;99.90;;;;;;4993998;28;20195;-86
2023/08/18 06:07:45;;;;;;;8.43;3.00;;;17.80;99.90;;;;;;4995860;28;20184;-85
2023/08/18 06:10:13;;;;;;;5.55;2.70;;;17.90;99.90;;;;;;4994593;28;20215;-85
2023/08/18 06:12:39;;;;;;;4.57;2.53;;;17.90;99.90;;;;;;4994900;28;20258;-89
2023/08/18 06:15:09;;;;;;;3.10;2.17;;;18.10;99.90;;;;;;4995035;28;20172;-85
2023/08/18 06:17:35;;;;;;;8.52;2.65;;;18.20;99.90;;;;;;4995088;28;20190;-86
2023/08/18 06:20:01;;;;;;;7.95;2.50;;;18.20;99.90;;;;;;4995729;28;20674;-85
2023/08/18 06:22:27;;;;;;;7.85;2.38;;;18.30;99.90;;;;;;4993832;28;20184;-86
2023/08/18 06:24:53;;;;;;;2.60;2.05;;;18.40;99.90;;;;;;4995155;28;20267;-86
2023/08/18 06:27:18;;;;;;;4.82;3.00;;;18.40;99.90;;;;;;4995844;28;20192;-85
2023/08/18 06:29:44;;;;;;;8.27;2.70;;;18.50;99.90;;;;;;4994998;28;20215;-84
2023/08/18 06:32:10;;;;;;;7.93;3.15;;;18.50;99.90;;;;;;4993229;28;20273;-85
2023/08/18 06:34:35;;;;;;;3.75;2.53;;;18.60;99.90;;;;;;4995835;28;20172;-85
2023/08/18 06:37:02;;;;;;;9.85;2.88;;;18.70;99.90;;;;;;4994502;28;20639;-85
2023/08/18 06:39:28;;;;;;;4.22;2.20;;;18.70;99.90;;;;;;4994396;28;20172;-85
2023/08/18 06:41:54;;;;;;;9.20;2.50;;;18.80;99.90;;;;;;4993793;28;20195;-86
2023/08/18 06:44:20;;;;;;;6.53;2.80;;;18.90;99.90;;;;;;4990595;28;20199;-85
2023/08/18 06:46:46;;;;;;;9.02;2.40;;;19.00;99.90;;;;;;4976211;28;20169;-86
2023/08/18 06:49:12;;;;;;;4.80;2.53;;;19.10;99.90;;;;;;4988578;28;20293;-84
2023/08/18 06:51:38;;;;;;;8.32;2.58;;;19.20;99.90;;;;;;4992304;28;20670;-85
2023/08/18 06:54:04;;;;;;;4.32;2.58;;;19.30;99.90;;;;;;4992927;28;20187;-88
2023/08/18 06:56:30;;;;;;;5.45;2.97;;;19.30;99.90;;;;;;4992880;28;20215;-85
2023/08/18 06:58:55;;;;;;;4.20;2.38;;;19.50;99.90;;;;;;4977632;28;20623;-85
2023/08/18 07:01:21;;;;;;;6.78;2.83;;;19.50;99.90;;;;;;4977750;28;20199;-85
2023/08/18 07:03:48;;;;;;;5.00;2.70;;;19.60;99.90;;;;;;4987961;28;20184;-83
2023/08/18 07:06:14;;;;;;;6.93;2.90;;;19.70;99.90;;;;;;4993104;28;20190;-84
2023/08/18 07:08:40;;;;;;;7.28;2.65;;;19.60;99.90;;;;;;4993083;28;20206;-85
2023/08/18 07:11:05;;;;;;;10.70;3.65;;;19.70;99.90;;;;;;4991715;28;20243;-85
2023/08/18 07:13:31;;;;;;;7.25;3.30;;;19.80;99.90;;;;;;4986578;28;20198;-85
2023/08/18 07:15:57;;;;;;;5.18;2.92;;;19.90;99.90;;;;;;4994211;28;20250;-85
2023/08/18 07:18:23;;;;;;;9.73;3.45;;;20.00;99.90;;;;;;4992715;28;20172;-84
2023/08/18 07:20:49;;;;;;;5.72;2.80;;;20.10;99.90;;;;;;4988707;28;20228;-85
2023/08/18 07:23:14;;;;;;;6.72;3.13;;;20.20;99.90;;;;;;4990891;28;20215;-84
2023/08/18 07:25:41;;;;;;;8.27;3.30;;;20.10;99.90;;;;;;4992061;28;20211;-84
2023/08/18 07:28:07;;;;;;;4.03;2.72;;;20.20;99.90;;;;;;4992462;28;20267;-84
2023/08/18 07:30:33;;;;;;;9.25;3.17;;;20.20;99.90;;;;;;4990592;28;20267;-85
2023/08/18 07:33:00;;;;;;;6.28;3.22;;;20.20;99.90;;;;;;4992720;28;20207;-84
2023/08/18 07:35:26;;;;;;;8.40;3.10;;;20.40;99.90;;;;;;4992720;28;20206;-84
2023/08/18 07:37:52;;;;;;;7.07;2.85;;;20.30;99.90;;;;;;4992050;28;20204;-84
2023/08/18 07:40:18;;;;;;;6.97;3.03;;;20.40;99.90;;;;;;4991533;28;20191;-84
2023/08/18 07:42:44;;;;;;;6.75;2.72;;;20.30;99.90;;;;;;4991089;28;20223;-85
2023/08/18 07:45:10;;;;;;;7.47;3.08;;;20.40;99.90;;;;;;4992163;28;20237;-85
2023/08/18 07:47:38;;;;;;;5.78;2.75;;;20.50;99.90;;;;;;4992220;28;20175;-84
2023/08/18 07:50:07;;;;;;;5.80;2.70;;;20.60;99.90;;;;;;4991716;28;20586;-83
2023/08/18 07:52:34;;;;;;;4.97;2.58;;;20.70;99.90;;;;;;4992793;28;20294;-86
2023/08/18 07:55:04;;;;;;;5.05;2.50;;;20.70;99.90;;;;;;4992180;28;20223;-85
2023/08/18 07:57:30;;;;;;;5.05;2.80;;;20.70;99.90;;;;;;4984180;28;20250;-84
2023/08/18 07:59:56;;;;;;;5.60;2.70;;;20.70;99.90;;;;;;4992750;28;20535;-84
2023/08/18 08:02:22;;;;;;;4.72;2.70;;;20.70;99.90;;;;;;4992038;28;20187;-84
2023/08/18 08:04:49;;;;;;;4.97;2.80;;;20.70;99.90;;;;;;4994097;28;20180;-85
2023/08/18 08:07:15;;;;;;;4.25;3.03;;;20.70;99.90;;;;;;4992346;28;20198;-85
2023/08/18 08:09:41;;;;;;;4.13;2.58;;;20.90;99.90;;;;;;4983892;28;20196;-85
2023/08/18 08:12:07;;;;;;;4.78;2.67;;;20.90;99.90;;;;;;4988533;28;20607;-85
2023/08/18 08:14:32;;;;;;;4.57;3.00;;;21.00;99.90;;;;;;4993947;28;20172;-85
2023/08/18 08:16:58;;;;;;;8.10;3.47;;;21.10;99.90;;;;;;4993723;28;20187;-86
2023/08/18 08:19:25;;;;;;;6.65;2.70;;;21.20;99.90;;;;;;4992644;28;20196;-86
2023/08/18 08:21:51;;;;;;;8.68;2.95;;;21.20;99.90;;;;;;4993687;28;20310;-86
2023/08/18 08:24:16;;;;;;;7.53;2.30;;;21.20;99.90;;;;;;4995134;28;20614;-88
2023/08/18 08:26:43;;;;;;;5.47;3.20;;;21.30;99.90;;;;;;4997896;28;20187;-86
2023/08/18 08:29:09;;;;;;;8.48;3.10;;;21.40;99.90;;;;;;4995383;28;20184;-85
2023/08/18 08:31:35;;;;;;;11.82;3.05;;;21.50;99.90;;;;;;4996446;28;20276;-86
2023/08/18 08:34:01;;;;;;;6.45;3.13;;;21.50;99.90;;;;;;4995265;28;20564;-86
2023/08/18 08:36:32;;;;;;;8.02;2.95;;;21.60;99.90;;;;;;4995991;28;20186;-86
2023/08/18 08:38:59;;;;;;;5.45;2.88;;;21.70;99.90;;;;;;4996205;28;20210;-87
2023/08/18 08:41:26;;;;;;;7.88;3.35;;;21.70;99.90;;;;;;4990844;28;20211;-86
2023/08/18 08:43:52;;;;;;;4.55;2.80;;;21.80;99.90;;;;;;4997718;28;20276;-87
2023/08/18 08:46:18;;;;;;;5.05;3.10;;;21.80;99.90;;;;;;4994505;28;20628;-87
2023/08/18 08:48:47;;;;;;;7.97;3.00;;;21.80;99.90;;;;;;4993351;28;20180;-86
2023/08/18 08:51:14;;;;;;;5.30;2.90;;;21.90;99.90;;;;;;4995547;28;20207;-86
2023/08/18 08:53:46;;;;;;;8.32;3.22;;;22.00;99.90;;;;;;4996502;28;20188;-87
2023/08/18 08:56:16;;;;;;;4.35;2.92;;;22.00;99.90;;;;;;4996061;28;20176;-88
2023/08/18 08:58:42;;;;;;;5.70;2.92;;;22.10;99.90;;;;;;4982165;28;20191;-88
2023/08/18 09:01:10;;;;;;;7.40;3.88;;;22.20;99.90;;;;;;4997354;28;20496;-87
2023/08/18 09:03:36;;;;;;;4.60;3.53;;;22.20;99.90;;;;;;4996237;28;20172;-86
2023/08/18 09:06:02;;;;;;;7.78;3.50;;;22.30;99.90;;;;;;4997820;28;20184;-85
2023/08/18 09:08:27;;;;;;;5.90;3.42;;;22.30;99.90;;;;;;4990639;28;20181;-85
2023/08/18 09:10:54;;;;;;;4.40;3.20;;;22.30;99.90;;;;;;4984039;28;20635;-84
2023/08/18 09:13:20;;;;;;;4.97;3.85;;;22.40;99.90;;;;;;4995580;28;20191;-84
2023/08/18 09:15:46;;;;;;;5.30;3.55;;;22.30;99.90;;;;;;4993019;28;20180;-85
2023/08/18 09:18:12;;;;;;;5.28;3.38;;;22.40;99.90;;;;;;4995684;28;20271;-84
2023/08/18 09:20:38;;;;;;;8.27;3.83;;;22.40;99.90;;;;;;4996563;28;20303;-84
2023/08/18 09:23:04;;;;;;;6.88;3.45;;;22.40;99.90;;;;;;4995398;28;20578;-83
2023/08/18 09:25:36;;;;;;;7.10;4.30;;;22.50;99.90;;;;;;4996761;28;20250;-83
2023/08/18 09:28:05;;;;;;;6.03;3.60;;;22.60;99.90;;;;;;4995670;28;20291;-84
2023/08/18 09:30:32;;;;;;;9.20;3.28;;;22.70;99.90;;;;;;4995339;28;20235;-83
2023/08/18 09:33:04;;;;;;;5.72;4.05;;;22.80;99.90;;;;;;4994945;28;20220;-83
2023/08/18 09:35:36;;;;;;;4.88;3.13;;;22.90;99.90;;;;;;4994789;28;20184;-84
2023/08/18 09:38:03;;;;;;;4.80;3.25;;;22.90;99.90;;;;;;4994794;28;20638;-85
2023/08/18 09:40:29;;;;;;;6.75;3.90;;;23.00;99.90;;;;;;4995245;28;20246;-84
2023/08/18 09:42:55;;;;;;;4.85;3.38;;;23.00;99.90;;;;;;4996478;28;20179;-84
2023/08/18 09:45:23;;;;;;;5.25;3.47;;;23.00;99.90;;;;;;4993830;28;20199;-84
2023/08/18 09:47:54;;;;;;;7.45;3.60;;;23.10;99.90;;;;;;4993305;28;20187;-84
2023/08/18 09:50:24;;;;;;;6.95;3.95;;;23.30;99.90;;;;;;4994337;28;20299;-84
2023/08/18 09:52:53;;;;;;;7.05;4.25;;;23.40;99.90;;;;;;4993220;28;20239;-85
2023/08/18 09:55:23;;;;;;;5.72;3.95;;;23.50;99.90;;;;;;4996341;28;20258;-84
2023/08/18 09:58:15;;;;;;;4.80;3.92;;;23.50;99.90;;;;;;4994100;28;20184;-84
2023/08/18 10:00:43;;;;;;;6.20;3.72;;;23.60;99.90;;;;;;4989535;28;20199;-84
2023/08/18 10:03:15;;;;;;;7.75;3.90;;;23.70;99.90;;;;;;4994401;28;20177;-84
2023/08/18 10:05:42;;;;;;;6.57;4.22;;;23.70;99.90;;;;;;4994950;28;20562;-84
2023/08/18 10:08:08;;;;;;;5.60;4.28;;;23.80;99.90;;;;;;4992786;28;20179;-84
2023/08/18 10:10:35;;;;;;;5.68;4.18;;;23.90;99.90;;;;;;4995939;28;20171;-83
2023/08/18 10:13:01;;;;;;;7.93;4.20;;;24.00;99.90;;;;;;4994541;28;20501;-84
2023/08/18 10:15:28;;;;;;;5.72;4.18;;;24.10;99.90;;;;;;4995713;28;20187;-83
2023/08/18 10:17:54;;;;;;;9.38;4.65;;;24.20;99.90;;;;;;4993921;28;20192;-87
2023/08/18 10:20:24;;;;;;;5.97;4.20;;;24.30;99.90;;;;;;4982844;28;20678;-87
2023/08/18 10:22:50;;;;;;;5.43;4.22;;;24.30;99.90;;;;;;4980732;28;20187;-84
2023/08/18 10:25:28;;;;;;;5.25;4.50;;;24.30;99.90;;;;;;4994496;28;20283;-85
2023/08/18 10:27:53;;;;;;;5.63;4.20;;;24.40;99.90;;;;;;4981700;28;20194;-85
2023/08/18 10:30:26;;;;;;;9.05;4.35;;;24.40;99.90;;;;;;4995958;28;20161;-89
2023/08/18 10:33:00;;;;;;;6.15;4.32;;;24.30;99.90;;;;;;4994171;28;20956;-84
2023/08/18 10:35:28;;;;;;;7.05;4.57;;;24.40;99.90;;;;;;4990164;28;20184;-84
2023/08/18 10:38:03;;;;;;;8.65;4.97;;;24.50;99.90;;;;;;4984587;28;20275;-88
2023/08/18 10:40:33;;;;;;;5.40;4.25;;;24.60;99.90;;;;;;4991401;28;20175;-90
2023/08/18 10:43:08;;;;;;;6.20;4.53;;;24.80;99.90;;;;;;4994534;28;20195;-87
2023/08/18 10:45:35;;;;;;;6.78;4.68;;;24.90;99.90;;;;;;4995557;28;20187;-89
2023/08/18 10:48:05;;;;;;;11.32;4.60;;;24.90;99.90;;;;;;4992668;28;20289;-88
2023/08/18 10:50:35;;;;;;;8.15;4.82;;;25.00;99.90;;;;;;4992980;28;20880;-86
2023/08/18 10:53:03;;;;;;;7.03;4.97;;;25.00;99.90;;;;;;4993589;28;20306;-84
2023/08/18 10:55:30;;;;;;;5.88;4.72;;;25.00;99.90;;;;;;4994252;28;20252;-87
2023/08/18 10:57:56;;;;;;;5.95;5.00;;;25.10;99.90;;;;;;4992932;28;20532;-89
2023/08/18 11:00:22;;;;;;;5.22;4.70;;;25.20;99.90;;;;;;4990661;28;20270;-85
2023/08/18 11:02:49;;;;;;;5.57;4.75;;;25.20;99.90;;;;;;4993193;28;20180;-85
2023/08/18 11:05:21;;;;;;;5.72;4.68;;;25.30;99.90;;;;;;4994761;28;20187;-83
2023/08/18 11:07:49;;;;;;;6.72;4.70;;;25.30;99.90;;;;;;4992560;28;20191;-84
2023/08/18 11:10:22;;;;;;;5.35;4.68;;;25.40;99.90;;;;;;4992491;28;20191;-86
2023/08/18 11:12:50;;;;;;;6.78;4.40;;;25.60;99.90;;;;;;4993345;28;20208;-85
2023/08/18 11:15:19;;;;;;;7.53;5.05;;;25.70;99.90;;;;;;4992904;28;20176;-83
2023/08/18 11:17:44;;;;;;;5.88;4.75;;;25.80;99.90;;;;;;4992480;28;20196;-84
2023/08/18 11:20:14;;;;;;;4.93;4.28;;;25.80;99.90;;;;;;4992135;28;20585;-84
2023/08/18 11:22:45;;;;;;;9.70;4.43;;;25.80;99.90;;;;;;4994055;28;20259;-85
2023/08/18 11:25:11;;;;;;;5.90;4.57;;;26.00;99.90;;;;;;4994701;28;20165;-84
2023/08/18 11:27:41;;;;;;;6.18;4.78;;;26.20;99.90;;;;;;4993728;28;20222;-83
2023/08/18 11:30:12;;;;;;;6.70;4.78;;;26.30;99.90;;;;;;4993664;28;20549;-83
2023/08/18 11:32:38;;;;;;;7.05;4.78;;;26.30;99.90;;;;;;4991030;28;20238;-83
2023/08/18 11:35:07;;;;;;;6.43;4.38;;;26.40;99.90;;;;;;4985217;28;20948;-83
2023/08/18 11:37:44;;;;;;;7.45;4.85;;;26.50;99.90;;;;;;4982577;28;20524;-84
2023/08/18 11:40:14;;;;;;;5.45;4.72;;;26.60;99.90;;;;;;4994481;28;20195;-84
2023/08/18 11:42:45;;;;;;;5.47;4.68;;;26.70;99.90;;;;;;4993585;28;20603;-83
2023/08/18 11:45:15;;;;;;;8.00;4.82;;;26.80;99.90;;;;;;4992545;28;20693;-84
2023/08/18 11:47:41;;;;;;;5.65;4.40;;;26.90;99.90;;;;;;4989028;28;20239;-83
2023/08/18 11:50:08;;;;;;;6.32;4.55;;;26.90;99.90;;;;;;4993127;28;20180;-84
2023/08/18 11:52:50;;;;;;;7.05;4.25;;;27.00;99.90;;;;;;4994033;28;20204;-83
2023/08/18 11:55:15;;;;;;;5.13;4.22;;;27.00;99.90;;;;;;4992967;28;20180;-83
2023/08/18 11:57:44;;;;;;;6.25;4.60;;;27.10;99.90;;;;;;4992581;28;20194;-84
2023/08/18 12:00:14;;;;;;;7.60;4.47;;;27.00;99.90;;;;;;4987088;28;20247;-84
2023/08/18 12:02:46;;;;;;;5.97;4.60;;;27.00;99.90;;;;;;4997083;28;20621;-83
2023/08/18 12:05:22;;;;;;;5.28;4.30;;;27.10;99.90;;;;;;4998200;28;20168;-84
2023/08/18 12:07:51;;;;;;;8.23;4.40;;;27.10;99.90;;;;;;4989895;28;20188;-84
2023/08/18 12:10:16;;;;;;;5.72;4.85;;;27.20;99.90;;;;;;4997399;28;20187;-84
2023/08/18 12:12:51;;;;;;;5.05;4.55;;;27.30;99.90;;;;;;4995983;28;20203;-83
2023/08/18 12:15:17;;;;;;;7.60;4.45;;;27.30;99.90;;;;;;4980555;28;20237;-82
2023/08/18 12:17:42;;;;;;;5.72;4.55;;;27.40;99.90;;;;;;4995658;28;20187;-84
2023/08/18 12:20:09;;;;;;;4.70;3.90;;;27.40;99.90;;;;;;4993685;28;20302;-83
2023/08/18 12:22:34;;;;;;;4.88;4.38;;;27.40;99.90;;;;;;4997350;28;20180;-85
2023/08/18 12:25:00;;;;;;;5.85;4.47;;;27.50;99.90;;;;;;4996672;28;20179;-85
2023/08/18 12:27:29;;;;;;;5.10;4.60;;;27.50;99.90;;;;;;4996577;28;20181;-84
2023/08/18 12:29:56;;;;;;;7.90;4.32;;;27.60;99.90;;;;;;4992933;28;20196;-84
2023/08/18 12:32:22;;;;;;;6.15;4.28;;;27.60;99.90;;;;;;4995302;28;20629;-85
2023/08/18 12:34:50;;;;;;;5.90;4.57;;;27.70;99.90;;;;;;4996468;28;20187;-83
2023/08/18 12:37:18;;;;;;;5.53;4.30;;;27.70;99.90;;;;;;4997640;28;20267;-84
2023/08/18 12:39:46;;;;;;;5.47;4.43;;;27.70;99.90;;;;;;4996318;28;20230;-85
2023/08/18 12:42:12;;;;;;;4.75;4.25;;;27.70;99.90;;;;;;4994818;28;20506;-84
2023/08/18 12:44:38;;;;;;;5.18;4.68;;;27.90;99.90;;;;;;4993467;28;20187;-89